Terminal Aerodrome Forecast
Issued by NWS

Home | Current Version | Previous Version | Text Only | Print | Product List | Glossary On
Versions: 1 2 3 4 5 6 7 8 9 10 11 12 13 14 15 16 17 18 19 20 21 22 23
000
FTUS46 KSEW 281900 AAA
TAFOLM
TAF AMD
KOLM 281958Z 2820/2918 29010KT 4SM -RA BR SCT008 OVC015
      TEMPO 2820/2824 2SM RA BR BKN008 OVC012
     FM290000 27012KT P6SM -SHRA BKN015 BKN030
     FM290600 25010KT P6SM SCT020 BKN050
     FM291600 36012KT P6SM SCT050=

USA.gov is the U.S. government's official web portal to all federal, state and local government web resources and services.